Time;durP1;ratioP1;P1;durP2;ratioP2;P2;SDS_P1;SDS_P2;PMS_P1;PMS_P2;Temp;Humidity;BMP_temperature;BMP_pressure;BME280_temperature;BME280_humidity;BME280_pressure;Samples;Min_cycle;Max_cycle;Signal;HPM_P1;HPM_P2
2022/04/03 00:01:35;;;;;;;3.58;2.13;;;;;;;-0.31;79.03;97016.66;5088272;28;20101;-63
2022/04/03 00:04:02;;;;;;;2.65;1.90;;;;;;;-0.29;79.10;97019.91;5084715;28;20044;-64
2022/04/03 00:06:30;;;;;;;2.58;1.70;;;;;;;-0.28;79.16;97021.47;5083027;28;20422;-63
2022/04/03 00:08:57;;;;;;;3.55;1.95;;;;;;;-0.29;79.33;97014.44;5092713;28;20044;-63
2022/04/03 00:11:26;;;;;;;4.35;1.90;;;;;;;-0.27;79.00;97023.88;5091430;28;20529;-64
2022/04/03 00:13:54;;;;;;;3.45;2.00;;;;;;;-0.29;79.25;97022.63;5092425;28;20063;-64
2022/04/03 00:16:22;;;;;;;3.50;1.92;;;;;;;-0.30;78.92;97018.25;5091533;28;20048;-64
2022/04/03 00:18:49;;;;;;;3.00;1.60;;;;;;;-0.33;78.65;97027.09;5091853;28;20051;-64
2022/04/03 00:21:18;;;;;;;5.75;1.88;;;;;;;-0.35;78.97;97026.66;5091267;28;20059;-64
2022/04/03 00:23:47;;;;;;;2.53;1.70;;;;;;;-0.35;79.29;97026.66;5091708;28;20051;-63
2022/04/03 00:26:14;;;;;;;3.22;1.80;;;;;;;-0.32;79.42;97023.28;5091724;28;20055;-64
2022/04/03 00:28:42;;;;;;;2.85;1.70;;;;;;;-0.32;79.29;97026.00;5092231;28;20131;-61
2022/04/03 00:31:11;;;;;;;3.17;1.70;;;;;;;-0.31;79.53;97024.88;5091825;28;20560;-61
2022/04/03 00:33:39;;;;;;;2.97;1.55;;;;;;;-0.32;79.28;97021.31;5088504;28;20070;-62
2022/04/03 00:36:06;;;;;;;3.47;1.88;;;;;;;-0.30;79.39;97023.72;5086191;28;20553;-61
2022/04/03 00:38:33;;;;;;;3.25;1.80;;;;;;;-0.28;79.37;97016.03;5091837;28;20139;-61
2022/04/03 00:41:02;;;;;;;3.13;1.90;;;;;;;-0.27;79.46;97012.16;5090559;28;20591;-62
2022/04/03 00:43:29;;;;;;;2.60;1.70;;;;;;;-0.28;79.50;97010.56;5091340;28;20105;-61
2022/04/03 00:45:59;;;;;;;2.13;1.23;;;;;;;-0.30;79.53;97008.16;5091766;28;20125;-62
2022/04/03 00:48:27;;;;;;;2.58;1.55;;;;;;;-0.35;79.26;97004.81;5090094;28;20048;-61
2022/04/03 00:50:54;;;;;;;4.28;2.08;;;;;;;-0.39;79.14;97020.22;5091786;28;20056;-61
2022/04/03 00:53:21;;;;;;;3.40;1.80;;;;;;;-0.38;79.56;97008.97;5082877;28;20048;-61
2022/04/03 00:55:48;;;;;;;3.58;1.50;;;;;;;-0.40;79.24;97007.69;5091782;28;20558;-61
2022/04/03 00:58:15;;;;;;;2.72;1.83;;;;;;;-0.39;79.63;97010.09;5091392;28;20475;-63
2022/04/03 01:00:43;;;;;;;3.15;2.10;;;;;;;-0.37;79.42;97007.84;5091280;28;20044;-64
2022/04/03 01:03:10;;;;;;;3.15;1.75;;;;;;;-0.37;79.75;97007.84;5088165;28;20056;-63
2022/04/03 01:05:37;;;;;;;3.13;1.73;;;;;;;-0.42;79.46;97002.56;5091364;28;20052;-64
2022/04/03 01:08:06;;;;;;;2.78;1.40;;;;;;;-0.41;79.75;97003.38;5091418;28;20146;-65
2022/04/03 01:10:33;;;;;;;3.97;2.10;;;;;;;-0.40;79.43;97002.22;5091354;28;20080;-64
2022/04/03 01:13:00;;;;;;;84.68;23.90;;;;;;;-0.42;79.31;96993.56;5091151;28;20488;-63
2022/04/03 01:15:27;;;;;;;10.90;5.63;;;;;;;-0.45;79.65;97000.47;5091296;28;20163;-63
2022/04/03 01:17:54;;;;;;;3.60;2.50;;;;;;;-0.43;79.61;97000.16;5095301;28;20056;-65
2022/04/03 01:20:22;;;;;;;4.03;2.30;;;;;;;-0.43;79.27;96997.41;5094733;28;20246;-64
2022/04/03 01:22:48;;;;;;;2.75;1.75;;;;;;;-0.43;79.68;96997.41;5094738;28;20080;-64
2022/04/03 01:25:16;;;;;;;4.05;2.22;;;;;;;-0.41;79.59;97001.41;5094898;28;20072;-63
2022/04/03 01:27:43;;;;;;;3.95;2.40;;;;;;;-0.42;79.42;96993.56;5094660;28;20051;-63
2022/04/03 01:30:11;;;;;;;11.60;5.15;;;;;;;-0.38;79.39;96994.53;5094312;28;20040;-63
2022/04/03 01:32:38;;;;;;;7.38;4.03;;;;;;;-0.38;79.31;97000.00;5094942;28;20113;-64
2022/04/03 01:35:06;;;;;;;3.47;2.17;;;;;;;-0.39;79.42;96999.19;5094231;28;20060;-65
2022/04/03 01:37:33;;;;;;;4.88;2.28;;;;;;;-0.43;79.49;96998.22;5093565;28;20048;-64
2022/04/03 01:40:00;;;;;;;3.35;2.20;;;;;;;-0.48;79.40;96995.66;5092494;28;20592;-64
2022/04/03 01:42:28;;;;;;;4.53;2.60;;;;;;;-0.49;79.27;96991.34;5095239;28;20079;-64
2022/04/03 01:44:55;;;;;;;2.90;2.20;;;;;;;-0.48;79.48;96992.94;5093952;28;20129;-64
2022/04/03 01:47:23;;;;;;;3.95;2.35;;;;;;;-0.56;79.37;96990.22;5094538;28;20047;-63
2022/04/03 01:49:50;;;;;;;4.13;2.40;;;;;;;-0.59;79.32;96993.59;5094324;28;20046;-63
2022/04/03 01:52:17;;;;;;;5.75;2.90;;;;;;;-0.64;79.37;96989.09;5094182;28;20384;-62
2022/04/03 01:54:44;;;;;;;4.25;2.70;;;;;;;-0.74;79.50;96996.81;5094213;28;20051;-64
2022/04/03 01:57:11;;;;;;;3.88;2.63;;;;;;;-0.74;79.38;96999.56;5092782;28;20519;-64
2022/04/03 01:59:38;;;;;;;5.25;2.67;;;;;;;-0.78;79.90;96985.75;5094265;28;20518;-64
2022/04/03 02:02:05;;;;;;;3.72;2.60;;;;;;;-0.81;79.82;96982.84;5092747;28;20044;-63
2022/04/03 02:04:33;;;;;;;4.60;2.85;;;;;;;-0.76;79.98;96982.69;5094685;28;20457;-63
2022/04/03 02:07:01;;;;;;;3.95;2.13;;;;;;;-0.79;79.92;96986.88;5093462;28;20103;-64
2022/04/03 02:09:28;;;;;;;3.55;2.13;;;;;;;-0.81;80.04;96980.09;5092724;28;20051;-63
2022/04/03 02:11:55;;;;;;;4.50;2.40;;;;;;;-0.90;79.99;96980.13;5093644;28;20044;-63
2022/04/03 02:14:24;;;;;;;4.63;3.03;;;;;;;-0.88;79.87;96979.81;5094038;28;20171;-64
2022/04/03 02:16:54;;;;;;;4.00;2.78;;;;;;;-0.87;79.82;96973.22;5093528;28;20040;-64
2022/04/03 02:19:22;;;;;;;4.00;2.63;;;;;;;-0.91;79.63;96975.81;5094075;28;20044;-63
2022/04/03 02:21:49;;;;;;;3.92;2.55;;;;;;;-0.91;79.58;96980.44;5093333;28;20238;-63
2022/04/03 02:24:17;;;;;;;3.72;2.53;;;;;;;-0.93;79.69;96971.78;5093927;28;20048;-64
2022/04/03 02:26:44;;;;;;;4.40;2.67;;;;;;;-0.93;80.02;96967.13;5093293;28;20047;-62
2022/04/03 02:29:11;;;;;;;3.78;2.45;;;;;;;-0.90;79.91;96962.94;5093739;28;20439;-64
2022/04/03 02:31:38;;;;;;;4.32;2.50;;;;;;;-0.88;79.61;96968.88;5093191;28;20093;-63
2022/04/03 02:34:06;;;;;;;3.60;2.20;;;;;;;-0.97;79.50;96963.44;5088917;28;20131;-63
2022/04/03 02:36:33;;;;;;;3.22;2.33;;;;;;;-1.13;78.98;96969.69;5088200;28;20059;-64
2022/04/03 02:39:00;;;;;;;3.88;2.30;;;;;;;-1.14;79.68;96965.34;5092140;28;20109;-64
2022/04/03 02:41:27;;;;;;;5.70;2.60;;;;;;;-1.05;79.93;96968.88;5087451;28;20419;-63
2022/04/03 02:43:54;;;;;;;4.68;2.55;;;;;;;-1.10;79.26;96960.88;5093187;28;20132;-64
2022/04/03 02:46:21;;;;;;;4.63;2.60;;;;;;;-1.07;79.41;96962.97;5093484;28;20043;-64
2022/04/03 02:48:49;;;;;;;4.25;2.42;;;;;;;-1.05;79.57;96968.88;5092991;28;20556;-64
2022/04/03 02:51:16;;;;;;;3.58;2.33;;;;;;;-1.05;79.17;96963.44;5093015;28;20044;-63
2022/04/03 02:53:43;;;;;;;3.95;2.90;;;;;;;-1.18;78.96;96964.41;5093198;28;20044;-63
2022/04/03 02:56:10;;;;;;;4.80;2.47;;;;;;;-1.20;79.05;96962.00;5092959;28;20076;-63
2022/04/03 02:58:37;;;;;;;3.95;2.30;;;;;;;-1.16;79.04;96975.78;5092637;28;20070;-64
2022/04/03 03:01:04;;;;;;;4.88;2.88;;;;;;;-1.10;79.14;96971.78;5093300;28;20605;-63
2022/04/03 03:03:31;;;;;;;4.43;2.83;;;;;;;-1.11;78.74;96978.34;5092741;28;20055;-64
2022/04/03 03:05:59;;;;;;;4.00;2.15;;;;;;;-1.17;78.74;96982.34;5092813;28;20058;-62
2022/04/03 03:08:26;;;;;;;4.82;2.72;;;;;;;-1.13;78.87;96983.34;5092196;28;20056;-63
2022/04/03 03:10:53;;;;;;;7.65;2.20;;;;;;;-1.06;78.98;96978.19;5092913;28;20355;-64
2022/04/03 03:13:20;;;;;;;4.65;2.95;;;;;;;-1.00;78.79;96988.63;5092620;28;20225;-63
2022/04/03 03:15:47;;;;;;;3.10;2.25;;;;;;;-1.02;78.29;96990.06;5085231;28;20055;-63
2022/04/03 03:18:14;;;;;;;3.80;2.50;;;;;;;-1.07;78.12;96976.59;5092623;28;20134;-63
2022/04/03 03:20:42;;;;;;;3.10;1.63;;;;;;;-1.24;77.90;96980.13;5092644;28;20040;-63
2022/04/03 03:23:09;;;;;;;5.85;2.70;;;;;;;-1.32;78.74;96980.09;5092875;28;20560;-63
2022/04/03 03:25:36;;;;;;;3.97;2.30;;;;;;;-1.28;78.84;96983.81;5091422;28;20142;-62
2022/04/03 03:28:03;;;;;;;5.18;2.35;;;;;;;-1.28;78.68;96986.53;5092192;28;20044;-64
2022/04/03 03:30:30;;;;;;;3.72;2.33;;;;;;;-1.23;78.92;96978.19;5092143;28;20101;-63
2022/04/03 03:32:57;;;;;;;5.10;2.95;;;;;;;-1.16;78.62;96984.75;5092552;28;20044;-63
2022/04/03 03:35:24;;;;;;;3.67;2.33;;;;;;;-1.16;78.53;96967.63;5089456;28;20044;-64
2022/04/03 03:37:51;;;;;;;2.75;1.42;;;;;;;-1.15;78.06;96991.84;5090523;28;20109;-64
2022/04/03 03:40:18;;;;;;;3.22;1.90;;;;;;;-1.20;78.26;96991.19;5092059;28;20130;-64
2022/04/03 03:42:45;;;;;;;4.40;2.53;;;;;;;-1.23;78.40;96984.44;5092959;28;20059;-64
2022/04/03 03:45:14;;;;;;;3.65;2.30;;;;;;;-1.19;78.30;96990.84;5092016;28;20056;-63
2022/04/03 03:47:45;;;;;;;4.45;2.40;;;;;;;-1.16;77.91;96992.16;5092104;28;20086;-64
2022/04/03 03:50:14;;;;;;;3.80;2.30;;;;;;;-1.16;77.77;96998.41;5092069;28;20051;-63
2022/04/03 03:52:42;;;;;;;3.67;2.60;;;;;;;-1.11;77.19;96997.44;5090622;28;20048;-63
2022/04/03 03:55:09;;;;;;;4.70;2.50;;;;;;;-1.13;76.84;97000.47;5091993;28;20464;-61
2022/04/03 03:57:38;;;;;;;4.38;2.50;;;;;;;-1.12;76.85;97006.75;5088126;28;20051;-61
2022/04/03 04:00:09;;;;;;;2.72;1.75;;;;;;;-1.03;76.24;97004.84;5091817;28;20047;-60
2022/04/03 04:02:36;;;;;;;;;;;;;;;-1.02;76.13;96990.06;5092465;28;20134;-63
2022/04/03 04:05:05;;;;;;;5.10;2.10;;;;;;;-1.10;75.81;97009.97;5091933;28;19963;-63
2022/04/03 04:07:45;;;;;;;3.05;1.85;;;;;;;-1.14;77.62;96998.06;5090767;28;20507;-63
2022/04/03 04:10:15;;;;;;;2.90;1.85;;;;;;;-1.09;78.30;97003.38;5073572;28;20502;-62
2022/04/03 04:12:45;;;;;;;3.85;2.28;;;;;;;-0.97;78.05;96998.09;5086797;28;20056;-63
2022/04/03 04:15:12;;;;;;;3.93;2.33;;;;;;;-1.08;77.32;97007.72;5087982;28;20048;-62
2022/04/03 04:17:44;;;;;;;4.53;2.47;;;;;;;-1.11;76.92;97019.25;5091723;28;20119;-64
2022/04/03 04:20:17;;;;;;;4.80;2.42;;;;;;;-1.06;77.58;97022.66;5092013;28;20101;-64
2022/04/03 04:22:46;;;;;;;3.97;2.40;;;;;;;-1.00;77.17;97031.47;5088779;28;20101;-63
2022/04/03 04:25:14;;;;;;;3.60;2.38;;;;;;;-1.01;76.61;97027.94;5091658;28;20051;-64
2022/04/03 04:27:41;;;;;;;2.70;1.60;;;;;;;-0.94;76.77;97030.19;5091669;28;20044;-64
2022/04/03 04:30:09;;;;;;;4.70;2.10;;;;;;;-0.95;76.37;97034.84;5091519;28;20093;-63
2022/04/03 04:32:37;;;;;;;3.30;1.98;;;;;;;-0.94;76.26;97035.66;5091662;28;20500;-63
2022/04/03 04:35:04;;;;;;;4.13;1.88;;;;;;;-0.94;75.94;97046.56;5091251;28;20180;-63
2022/04/03 04:37:32;;;;;;;3.30;2.22;;;;;;;-1.05;76.13;97037.06;5091433;28;20131;-63
2022/04/03 04:39:59;;;;;;;3.38;2.17;;;;;;;-1.00;76.27;97029.56;5091956;28;20434;-63
2022/04/03 04:42:27;;;;;;;3.00;1.85;;;;;;;-1.07;76.08;97042.84;5091189;28;20044;-63
2022/04/03 04:44:54;;;;;;;3.70;2.20;;;;;;;-1.07;76.12;97031.94;5092217;28;20134;-64
2022/04/03 04:47:21;;;;;;;3.58;2.10;;;;;;;-1.01;76.04;97046.25;5091645;28;20091;-63
2022/04/03 04:49:48;;;;;;;6.35;2.85;;;;;;;-1.01;76.09;97048.97;5092339;28;20048;-63
2022/04/03 04:52:16;;;;;;;3.45;2.03;;;;;;;-0.91;75.98;97048.66;5095191;28;20089;-63
2022/04/03 04:54:43;;;;;;;4.03;2.55;;;;;;;-0.80;75.57;97050.75;5095608;28;20118;-64
2022/04/03 04:57:10;;;;;;;4.15;2.45;;;;;;;-0.82;75.56;97042.09;5094929;28;20485;-64
2022/04/03 04:59:37;;;;;;;3.83;2.47;;;;;;;-0.76;75.60;97050.91;5095215;28;20135;-63
2022/04/03 05:02:06;;;;;;;3.45;1.88;;;;;;;-0.82;75.47;97063.09;5085087;28;20568;-63
2022/04/03 05:04:34;;;;;;;2.80;1.80;;;;;;;-0.87;75.53;97061.34;5095182;28;20126;-64
2022/04/03 05:07:04;;;;;;;4.18;1.98;;;;;;;-0.75;75.31;97057.97;5094615;28;20432;-64
2022/04/03 05:09:31;;;;;;;4.80;2.38;;;;;;;-0.72;75.37;97055.41;5095362;28;20052;-63
2022/04/03 05:11:59;;;;;;;3.45;2.15;;;;;;;-0.63;75.66;97069.06;5094582;28;20751;-63
2022/04/03 05:14:27;;;;;;;8.18;2.58;;;;;;;-0.57;75.48;97065.03;5095185;28;20478;-63
2022/04/03 05:16:54;;;;;;;3.53;2.00;;;;;;;-0.54;75.22;97075.31;5094973;28;20051;-63
2022/04/03 05:19:24;;;;;;;3.30;2.42;;;;;;;-0.51;75.31;97074.66;5095310;28;20072;-63
2022/04/03 05:21:51;;;;;;;4.05;2.45;;;;;;;-0.47;75.46;97067.47;5095117;28;20047;-63
2022/04/03 05:24:18;;;;;;;3.72;2.10;;;;;;;-0.45;75.17;97070.66;5094637;28;20055;-64
2022/04/03 05:26:46;;;;;;;4.85;2.72;;;;;;;-0.41;75.26;97083.34;5095364;28;20048;-64
2022/04/03 05:29:14;;;;;;;5.35;2.65;;;;;;;-0.36;74.81;97074.19;5094539;28;20449;-64
2022/04/03 05:31:42;;;;;;;2.67;1.80;;;;;;;-0.35;74.33;97070.34;5094874;28;20087;-64
2022/04/03 05:34:09;;;;;;;3.63;2.10;;;;;;;-0.47;73.71;97078.38;5093951;28;20425;-63
2022/04/03 05:36:36;;;;;;;3.50;1.80;;;;;;;-0.48;73.33;97068.56;5093859;28;20054;-64
2022/04/03 05:39:05;;;;;;;4.68;1.98;;;;;;;-0.59;73.29;97083.69;5094405;28;20044;-64
2022/04/03 05:41:36;;;;;;;3.83;2.13;;;;;;;-0.61;73.65;97084.00;5094346;28;20048;-66
2022/04/03 05:44:03;;;;;;;;;;;;;;;-0.63;73.46;97086.25;5094742;28;20575;-64
2022/04/03 05:46:30;;;;;;;2.88;1.92;;;;;;;-0.67;73.51;97092.66;5094391;28;19928;-64
2022/04/03 05:48:58;;;;;;;4.03;2.22;;;;;;;-0.69;73.11;97086.72;5093997;28;20048;-64
2022/04/03 05:51:25;;;;;;;3.17;2.13;;;;;;;-0.88;73.56;97094.41;5094738;28;20127;-63
2022/04/03 05:53:52;;;;;;;4.60;1.80;;;;;;;-1.07;73.23;97107.53;5094089;28;20506;-64
2022/04/03 05:56:21;;;;;;;5.47;2.38;;;;;;;-1.16;74.05;97103.97;5094687;28;20078;-63
2022/04/03 05:58:48;;;;;;;3.40;2.10;;;;;;;-0.97;74.28;97109.97;5094105;28;20056;-64
2022/04/03 06:01:15;;;;;;;7.20;2.45;;;;;;;-0.83;74.27;97107.91;5093564;28;20135;-64
2022/04/03 06:03:42;;;;;;;10.00;2.58;;;;;;;-0.85;74.03;97099.22;5094275;28;20147;-64
2022/04/03 06:06:09;;;;;;;3.15;1.80;;;;;;;-0.84;74.27;97122.66;5093900;28;20048;-62
2022/04/03 06:08:36;;;;;;;5.93;1.80;;;;;;;-0.87;74.38;97112.38;5094591;28;20492;-63
2022/04/03 06:11:03;;;;;;;4.72;2.30;;;;;;;-0.86;74.15;97116.72;5093560;28;20044;-63
2022/04/03 06:13:30;;;;;;;9.05;2.28;;;;;;;-0.89;73.47;97131.00;5094542;28;20051;-64
2022/04/03 06:15:57;;;;;;;4.78;2.25;;;;;;;-0.90;73.82;97118.47;5093641;28;20082;-64
2022/04/03 06:18:24;;;;;;;7.47;2.30;;;;;;;-0.72;73.45;97129.09;5093782;28;20511;-63
2022/04/03 06:20:51;;;;;;;4.32;2.10;;;;;;;-0.70;73.14;97120.59;5093515;28;20086;-64
2022/04/03 06:23:20;;;;;;;3.67;2.33;;;;;;;-0.62;72.88;97133.47;5094062;28;20048;-63
2022/04/03 06:25:52;;;;;;;4.40;2.40;;;;;;;-0.58;72.74;97121.59;5090083;28;20048;-64
2022/04/03 06:28:20;;;;;;;4.38;2.40;;;;;;;-0.52;72.56;97130.41;5093905;28;20056;-64
2022/04/03 06:30:48;;;;;;;4.55;2.15;;;;;;;-0.63;72.23;97129.09;5093118;28;20043;-64
2022/04/03 06:33:17;;;;;;;3.00;1.92;;;;;;;-0.61;72.31;97137.78;5093978;28;20101;-63
2022/04/03 06:35:44;;;;;;;5.82;2.60;;;;;;;-0.54;72.25;97138.09;5089787;28;20083;-64
2022/04/03 06:38:12;;;;;;;4.50;1.98;;;;;;;-0.53;71.71;97137.00;5090634;28;20101;-64
2022/04/03 06:40:52;;;;;;;4.97;2.00;;;;;;;-0.63;71.45;97134.56;5093576;28;20059;-64
2022/04/03 06:43:21;;;;;;;3.27;1.60;;;;;;;-0.67;71.85;97139.88;5091088;28;20134;-64
2022/04/03 06:45:49;;;;;;;3.47;2.03;;;;;;;-0.79;71.66;97149.78;5092992;28;20097;-64
2022/04/03 06:48:17;;;;;;;2.60;1.67;;;;;;;-0.83;71.43;97157.81;5093220;28;20048;-64
2022/04/03 06:50:45;;;;;;;3.40;2.00;;;;;;;-0.80;71.46;97162.63;5092116;28;20055;-64
2022/04/03 06:53:12;;;;;;;2.88;2.08;;;;;;;-0.93;71.29;97170.94;5088388;28;20098;-64
2022/04/03 06:55:39;;;;;;;5.82;2.97;;;;;;;-0.89;71.16;97170.00;5091850;28;20093;-64
2022/04/03 06:58:07;;;;;;;3.53;2.10;;;;;;;-0.75;71.15;97169.88;5092931;28;20455;-65
2022/04/03 07:00:37;;;;;;;8.23;2.50;;;;;;;-0.73;70.92;97178.56;5091702;28;20052;-64
2022/04/03 07:03:05;;;;;;;;;;;;;;;-0.90;70.49;97181.22;5093153;28;20051;-64
2022/04/03 07:05:32;;;;;;;3.20;2.05;;;;;;;-0.96;70.49;97175.13;5093242;28;20392;-64
2022/04/03 07:07:59;;;;;;;3.03;2.03;;;;;;;-0.87;70.73;97194.22;5092125;28;20067;-64
2022/04/03 07:10:27;;;;;;;4.20;2.28;;;;;;;-0.73;70.61;97205.84;5093036;28;20044;-66
2022/04/03 07:12:55;;;;;;;4.95;2.40;;;;;;;-0.73;70.62;97212.13;5083057;28;20461;-64
2022/04/03 07:15:22;;;;;;;4.72;2.30;;;;;;;-0.67;70.48;97215.50;5092716;28;20082;-64
2022/04/03 07:17:49;;;;;;;5.72;2.53;;;;;;;-0.58;70.22;97210.84;5092184;28;20482;-65
2022/04/03 07:20:16;;;;;;;6.85;2.40;;;;;;;-0.62;69.86;97212.63;5092885;28;20048;-64
2022/04/03 07:22:44;;;;;;;3.80;2.08;;;;;;;-0.76;70.08;97222.84;5092136;28;20088;-65
2022/04/03 07:25:13;;;;;;;4.50;2.60;;;;;;;-0.80;70.38;97221.88;5092372;28;20454;-63
2022/04/03 07:27:42;;;;;;;5.15;2.40;;;;;;;-0.88;70.01;97233.56;5092303;28;20414;-63
2022/04/03 07:30:12;;;;;;;4.90;2.70;;;;;;;-1.10;69.73;97228.19;5092316;28;20051;-64
2022/04/03 07:32:39;;;;;;;3.83;2.33;;;;;;;-1.14;70.45;97238.09;5091788;28;20527;-64
2022/04/03 07:35:07;;;;;;;3.85;2.17;;;;;;;-1.10;70.27;97244.56;5088029;28;20101;-60
2022/04/03 07:37:34;;;;;;;4.10;2.47;;;;;;;-1.07;69.88;97239.25;5091941;28;20048;-61
2022/04/03 07:40:08;;;;;;;2.40;1.85;;;;;;;-1.03;69.98;97253.91;5092784;28;20135;-61
2022/04/03 07:42:36;;;;;;;5.05;2.83;;;;;;;-1.10;69.78;97244.56;5091871;28;20044;-62
2022/04/03 07:45:04;;;;;;;9.75;2.70;;;;;;;-1.05;69.61;97263.50;5092371;28;20044;-61
2022/04/03 07:47:32;;;;;;;6.15;3.42;;;;;;;-0.96;69.56;97261.59;5091835;28;20055;-61
2022/04/03 07:50:03;;;;;;;5.57;2.60;;;;;;;-0.79;69.34;97269.88;5092270;28;20469;-62
2022/04/03 07:52:32;;;;;;;4.32;2.55;;;;;;;-0.66;69.18;97271.69;5091753;28;20040;-61
2022/04/03 07:55:00;;;;;;;10.13;2.50;;;;;;;-0.51;69.06;97257.59;5091192;28;20097;-61
2022/04/03 07:57:27;;;;;;;8.23;2.28;;;;;;;-0.48;68.33;97274.16;5090924;28;20079;-62
2022/04/03 07:59:54;;;;;;;5.30;3.22;;;;;;;-0.42;68.66;97280.28;5091543;28;20101;-61
2022/04/03 08:02:21;;;;;;;4.90;2.53;;;;;;;-0.34;67.81;97282.22;5091836;28;20054;-61
2022/04/03 08:04:48;;;;;;;5.28;1.70;;;;;;;-0.45;67.83;97280.91;5089595;28;20048;-61
2022/04/03 08:07:15;;;;;;;7.40;2.75;;;;;;;-0.49;67.24;97279.94;5083586;28;20117;-61
2022/04/03 08:09:42;;;;;;;4.43;2.58;;;;;;;-0.47;67.21;97280.44;5090424;28;20079;-61
2022/04/03 08:12:10;;;;;;;7.45;3.33;;;;;;;-0.32;66.99;97293.66;5090183;28;20040;-61
2022/04/03 08:14:37;;;;;;;4.72;2.97;;;;;;;-0.26;66.82;97297.84;5091351;28;20131;-61
2022/04/03 08:17:05;;;;;;;4.13;2.55;;;;;;;-0.15;67.05;97307.34;5091980;28;20143;-61
2022/04/03 08:19:33;;;;;;;6.15;2.70;;;;;;;-0.15;66.72;97310.06;5091510;28;20052;-61
2022/04/03 08:22:00;;;;;;;5.82;2.55;;;;;;;-0.05;67.08;97315.25;5090334;28;20135;-61
2022/04/03 08:24:27;;;;;;;6.32;2.60;;;;;;;0.03;66.77;97320.72;5095485;28;20044;-62
2022/04/03 08:26:54;;;;;;;5.25;2.70;;;;;;;0.05;66.43;97312.19;5095782;28;20108;-61
2022/04/03 08:29:21;;;;;;;6.90;2.33;;;;;;;0.09;65.74;97315.94;5095727;28;20460;-61
2022/04/03 08:31:48;;;;;;;4.75;2.55;;;;;;;0.05;64.94;97319.63;5095856;28;20083;-62
2022/04/03 08:34:15;;;;;;;4.47;2.30;;;;;;;0.10;64.84;97317.53;5095936;28;20121;-61
2022/04/03 08:37:03;;;;;;;5.53;2.67;;;;;;;0.08;63.75;97317.03;5093111;28;20048;-61
2022/04/03 08:39:30;;;;;;;5.00;2.22;;;;;;;0.12;63.98;97326.22;5093955;28;20060;-61
2022/04/03 08:41:57;;;;;;;5.10;2.45;;;;;;;0.31;64.22;97329.44;5095812;28;20048;-61
2022/04/03 08:44:25;;;;;;;8.65;2.60;;;;;;;0.50;63.34;97316.25;5095490;28;20044;-62
2022/04/03 08:46:53;;;;;;;11.85;5.28;;;;;;;0.60;62.62;97323.34;5095376;28;20407;-61
2022/04/03 08:49:21;;;;;;;6.75;2.40;;;;;;;0.63;61.36;97323.50;5095910;28;20514;-61
2022/04/03 08:51:50;;;;;;;6.38;2.03;;;;;;;0.86;61.44;97332.34;5094894;28;20075;-61
2022/04/03 08:54:20;;;;;;;4.32;2.83;;;;;;;1.52;60.94;97326.22;5095803;28;20048;-61
2022/04/03 08:56:48;;;;;;;2.60;1.60;;;;;;;1.77;59.70;97333.50;5094897;28;20101;-61
2022/04/03 08:59:15;;;;;;;4.38;2.10;;;;;;;2.06;58.59;97324.47;5095582;28;20056;-61
2022/04/03 09:01:42;;;;;;;5.80;2.53;;;;;;;2.50;57.34;97323.88;5094406;28;20417;-61
2022/04/03 09:04:09;;;;;;;7.70;3.35;;;;;;;3.77;57.00;97335.53;5095178;28;20647;-61
2022/04/03 09:06:59;;;;;;;41.22;35.38;;;;;;;5.82;52.70;97326.66;5090831;28;20064;-62
2022/04/03 09:09:27;;;;;;;30.73;9.70;;;;;;;6.52;51.56;97328.41;5095530;28;20447;-62
2022/04/03 09:12:18;;;;;;;7.20;3.63;;;;;;;6.53;51.66;97335.50;5095109;28;20471;-61
2022/04/03 09:14:53;;;;;;;4.75;2.20;;;;;;;6.66;50.68;97331.47;5094894;28;20526;-61
2022/04/03 09:17:45;;;;;;;4.32;2.65;;;;;;;5.90;51.33;97331.22;5093773;28;20419;-61
2022/04/03 09:20:15;;;;;;;4.53;2.28;;;;;;;5.58;51.36;97333.94;5094875;28;20108;-61
2022/04/03 09:22:44;;;;;;;5.07;2.72;;;;;;;5.03;52.61;97344.97;5095098;28;20097;-60
2022/04/03 09:25:13;;;;;;;10.43;2.55;;;;;;;4.97;53.11;97337.31;5094731;28;20052;-63
2022/04/03 09:27:51;;;;;;;6.45;2.40;;;;;;;4.87;52.77;97351.59;5094726;28;20055;-61
2022/04/03 09:30:20;;;;;;;4.07;2.15;;;;;;;5.34;52.20;97350.59;5094752;28;20097;-61
2022/04/03 09:32:57;;;;;;;4.35;2.53;;;;;;;5.47;51.28;97357.66;5093137;28;20040;-62
2022/04/03 09:35:52;;;;;;;3.63;2.40;;;;;;;5.76;50.56;97361.16;5090606;28;20076;-62
2022/04/03 09:38:19;;;;;;;39.55;15.48;;;;;;;6.32;49.33;97368.16;5094075;28;20506;-61
2022/04/03 09:40:48;;;;;;;7.70;2.75;;;;;;;6.40;48.17;97348.63;5094469;28;20415;-61
2022/04/03 09:43:20;;;;;;;6.80;2.42;;;;;;;5.99;49.03;97367.72;5092609;28;20047;-60
2022/04/03 09:45:54;;;;;;;3.97;2.38;;;;;;;5.68;49.46;97377.53;5094655;28;20056;-61
2022/04/03 09:48:33;;;;;;;5.20;2.33;;;;;;;5.71;48.90;97370.50;5084549;28;20505;-61
2022/04/03 09:51:05;;;;;;;5.50;1.90;;;;;;;5.36;49.77;97380.59;5094474;28;20138;-61
2022/04/03 09:53:45;;;;;;;4.90;2.53;;;;;;;4.95;49.50;97384.50;5093446;28;20052;-63
2022/04/03 09:56:15;;;;;;;10.57;4.90;;;;;;;4.74;50.58;97391.34;5094074;28;20553;-61
2022/04/03 09:58:51;;;;;;;7.32;2.70;;;;;;;4.60;50.39;97397.19;5092813;28;20063;-61
2022/04/03 10:01:27;;;;;;;3.97;1.92;;;;;;;4.54;51.05;97397.78;5094134;28;20128;-62
2022/04/03 10:03:55;;;;;;;4.13;2.50;;;;;;;4.62;51.42;97400.38;5091113;28;20043;-61
2022/04/03 10:06:23;;;;;;;5.72;2.53;;;;;;;4.39;51.51;97406.72;5093161;28;20087;-61
2022/04/03 10:08:51;;;;;;;4.63;2.00;;;;;;;4.03;51.53;97402.03;5094131;28;20051;-61
2022/04/03 10:11:19;;;;;;;3.92;2.20;;;;;;;4.06;52.31;97403.28;5093546;28;20453;-62
2022/04/03 10:13:47;;;;;;;5.50;2.22;;;;;;;4.28;51.34;97389.88;5092943;28;20056;-60
2022/04/03 10:16:16;;;;;;;5.65;2.63;;;;;;;4.41;51.11;97391.47;5094704;28;20056;-62
2022/04/03 10:18:44;;;;;;;10.05;3.67;;;;;;;4.73;51.15;97406.22;5093386;28;20044;-62
2022/04/03 10:21:22;;;;;;;3.92;2.25;;;;;;;5.09;50.02;97398.69;5086215;28;20048;-60
2022/04/03 10:23:52;;;;;;;6.82;2.75;;;;;;;5.23;50.04;97401.06;5091507;28;20074;-61
2022/04/03 10:26:22;;;;;;;6.30;2.58;;;;;;;5.64;50.39;97403.41;5092196;28;20116;-62
2022/04/03 10:28:54;;;;;;;4.47;2.45;;;;;;;5.78;49.74;97401.03;5093428;28;20131;-61
2022/04/03 10:31:22;;;;;;;49.78;22.60;;;;;;;5.74;50.25;97404.88;5093158;28;20056;-61
2022/04/03 10:33:51;;;;;;;5.40;2.90;;;;;;;5.78;51.08;97403.00;5093678;28;20047;-61
2022/04/03 10:36:27;;;;;;;5.55;2.47;;;;;;;5.74;50.90;97415.91;5093593;28;20048;-60
2022/04/03 10:39:05;;;;;;;4.90;1.95;;;;;;;5.34;50.51;97405.75;5093343;28;20051;-60
2022/04/03 10:41:35;;;;;;;5.95;3.40;;;;;;;5.11;50.17;97410.19;5090926;28;20054;-63
2022/04/03 10:44:11;;;;;;;2.65;1.45;;;;;;;4.87;49.55;97410.25;5089844;28;20510;-61
2022/04/03 10:47:03;;;;;;;3.15;1.90;;;;;;;4.73;50.55;97411.72;5091931;28;20048;-61
2022/04/03 10:49:37;;;;;;;4.28;2.53;;;;;;;4.81;51.08;97414.38;5071425;28;20514;-61
2022/04/03 10:52:10;;;;;;;5.68;2.38;;;;;;;5.03;51.16;97411.09;5091933;28;20052;-61
2022/04/03 10:54:50;;;;;;;4.32;2.38;;;;;;;4.78;51.17;97417.84;5093088;28;20062;-62
2022/04/03 10:57:40;;;;;;;6.70;2.13;;;;;;;4.72;51.59;97421.97;5093017;28;20146;-61
2022/04/03 11:00:16;;;;;;;19.95;6.88;;;;;;;4.44;51.13;97421.06;5092612;28;20155;-61
2022/04/03 11:02:57;;;;;;;4.22;2.47;;;;;;;4.42;51.94;97423.38;5092755;28;20094;-61
2022/04/03 11:05:27;;;;;;;6.28;2.70;;;;;;;4.39;51.79;97435.06;5092530;28;20139;-61
2022/04/03 11:08:17;;;;;;;3.47;1.95;;;;;;;4.49;51.35;97431.03;5092518;28;20151;-61
2022/04/03 11:10:56;;;;;;;3.13;2.17;;;;;;;4.55;51.72;97438.72;5092592;28;20047;-61
2022/04/03 11:13:30;;;;;;;21.50;7.05;;;;;;;4.73;52.16;97445.59;5090878;28;20044;-61
2022/04/03 11:16:01;;;;;;;5.88;2.42;;;;;;;4.92;51.11;97443.03;5092541;28;20624;-62
2022/04/03 11:18:47;;;;;;;3.78;2.13;;;;;;;4.84;51.22;97445.94;5092440;28;20105;-62
2022/04/03 11:21:17;;;;;;;6.63;2.13;;;;;;;4.82;50.06;97449.03;5080495;28;20052;-62
2022/04/03 11:24:02;;;;;;;2.83;1.57;;;;;;;4.80;50.67;97450.53;5092291;28;20093;-62
2022/04/03 11:26:29;;;;;;;3.40;1.60;;;;;;;4.74;51.25;97452.69;5092620;28;20343;-61
2022/04/03 11:29:06;;;;;;;5.18;2.15;;;;;;;4.65;50.62;97454.78;5092836;28;20062;-62
2022/04/03 11:31:35;;;;;;;6.35;2.55;;;;;;;4.45;51.64;97465.91;5092029;28;20135;-62
2022/04/03 11:34:02;;;;;;;2.92;1.60;;;;;;;4.25;51.44;97456.59;5092086;28;20072;-62
2022/04/03 11:36:31;;;;;;;3.20;1.60;;;;;;;4.24;51.21;97471.53;5092081;28;20130;-61
2022/04/03 11:39:00;;;;;;;6.40;2.33;;;;;;;4.33;51.21;97474.16;5092085;28;20568;-62
2022/04/03 11:41:35;;;;;;;3.38;2.00;;;;;;;4.39;50.78;97481.84;5088903;28;20398;-62
2022/04/03 11:44:10;;;;;;;5.60;1.75;;;;;;;4.57;51.47;97480.50;5091730;28;20058;-61
2022/04/03 11:46:40;;;;;;;3.08;1.92;;;;;;;4.57;50.59;97480.50;5091880;28;20423;-61